Time,TemperatureF,DewpointF,PressureIn,WindDirection,WindDirectionDegrees,WindSpeedMPH,WindSpeedGustMPH,Humidity,HourlyPrecipIn,Conditions,Clouds,dailyrainin,SoftwareType,DateUTC
2014-01-30 00:01:00,13.4,5.4,30.29,South,177,1.1,1.1,70,0.00,CLR,,0.00,WeatherDisplay:10.37,2014-01-30 05:01:00,
2014-01-30 00:02:00,13.4,5.4,30.29,SW,233,2.3,2.3,70,0.00,CLR,,0.00,WeatherDisplay:10.37,2014-01-30 05:02:00,
2014-01-30 00:05:00,13.3,5.3,30.29,SSE,160,0.0,0.0,70,0.00,CLR,,0.00,WeatherDisplay:10.37,2014-01-30 05:05:00,
2014-01-30 00:10:00,13.2,5.2,30.29,SSE,167,2.3,2.3,70,0.00,CLR,,0.00,WeatherDisplay:10.37,2014-01-30 05:10:00,
2014-01-30 00:15:00,13.0,5.0,30.29,SW,222,2.3,2.3,70,0.00,CLR,,0.00,WeatherDisplay:10.37,2014-01-30 05:15:00,
2014-01-30 00:20:00,12.7,5.1,30.29,SE,137,0.0,0.0,71,0.00,CLR,,0.00,WeatherDisplay:10.37,2014-01-30 05:20:00,
2014-01-30 00:25:00,12.4,4.8,30.29,SW,222,0.0,0.1,71,0.00,CLR,,0.00,WeatherDisplay:10.37,2014-01-30 05:25:00,
2014-01-30 00:30:00,12.2,4.6,30.29,South,188,0.0,0.0,71,0.00,CLR,,0.00,WeatherDisplay:10.37,2014-01-30 05:30:00,
2014-01-30 00:35:00,12.0,4.4,30.29,ESE,122,1.1,1.1,71,0.00,CLR,,0.00,WeatherDisplay:10.37,2014-01-30 05:35:00,
2014-01-30 00:40:00,11.8,4.5,30.29,WSW,240,1.1,1.1,72,0.00,CLR,,0.00,WeatherDisplay:10.37,2014-01-30 05:40:00,
2014-01-30 00:45:00,11.7,4.4,30.30,SW,226,2.3,2.3,72,0.00,CLR,,0.00,WeatherDisplay:10.37,2014-01-30 05:45:00,
2014-01-30 00:50:00,11.7,4.4,30.30,SE,145,2.3,2.3,72,0.00,CLR,,0.00,WeatherDisplay:10.37,2014-01-30 05:50:00,
2014-01-30 00:55:00,11.4,4.1,30.30,SSW,205,1.1,1.1,72,0.00,CLR,,0.00,WeatherDisplay:10.37,2014-01-30 05:55:00,
2014-01-30 01:00:00,11.3,3.7,30.30,SSW,212,2.3,2.3,71,0.00,CLR,,0.00,WeatherDisplay:10.37,2014-01-30 06:00:00,
2014-01-30 01:05:00,11.2,3.6,30.30,North,349,2.3,0.0,71,0.00,CLR,,0.00,WeatherDisplay:10.37,2014-01-30 06:05:00,
2014-01-30 01:10:00,11.1,3.5,30.30,SSW,200,1.1,1.1,71,0.00,CLR,,0.00,WeatherDisplay:10.37,2014-01-30 06:10:00,
2014-01-30 01:15:00,11.1,3.5,30.31,SW,217,2.3,2.3,71,0.00,CLR,,0.00,WeatherDisplay:10.37,2014-01-30 06:15:00,
2014-01-30 01:20:00,11.1,3.5,30.31,SSW,205,2.3,2.3,71,0.00,CLR,,0.00,WeatherDisplay:10.37,2014-01-30 06:20:00,
2014-01-30 01:25:00,11.1,3.2,30.31,SSW,197,0.0,0.0,70,0.00,CLR,,0.00,WeatherDisplay:10.37,2014-01-30 06:25:00,
2014-01-30 01:30:00,11.0,3.1,30.31,South,169,1.1,0.0,70,0.00,CLR,,0.00,WeatherDisplay:10.37,2014-01-30 06:30:00,
2014-01-30 01:35:00,10.9,3.0,30.31,SSW,195,0.0,0.0,70,0.00,CLR,,0.00,WeatherDisplay:10.37,2014-01-30 06:35:00,
2014-01-30 01:40:00,10.8,2.9,30.31,SSE,159,0.0,0.0,70,0.00,CLR,,0.00,WeatherDisplay:10.37,2014-01-30 06:40:00,
2014-01-30 01:45:00,10.7,2.8,30.31,SSW,203,0.0,0.0,70,0.00,CLR,,0.00,WeatherDisplay:10.37,2014-01-30 06:45:00,
2014-01-30 01:50:00,10.6,2.4,30.31,SE,138,0.0,0.0,69,0.00,CLR,,0.00,WeatherDisplay:10.37,2014-01-30 06:50:00,
2014-01-30 01:55:00,10.5,2.3,30.31,SW,222,1.1,1.1,69,0.00,CLR,,0.00,WeatherDisplay:10.37,2014-01-30 06:55:00,
2014-01-30 02:00:00,10.4,2.2,30.31,SE,144,0.0,0.0,69,0.00,CLR,,0.00,WeatherDisplay:10.37,2014-01-30 07:00:00,
2014-01-30 02:05:00,10.1,1.9,30.31,SE,131,0.0,0.0,69,0.00,,,0.00,WeatherDisplay:10.37,2014-01-30 07:05:00,
2014-01-30 02:10:00,9.8,2.0,30.31,SE,131,0.0,0.0,70,0.00,,,0.00,WeatherDisplay:10.37,2014-01-30 07:10:00,
2014-01-30 02:15:00,9.5,1.7,30.32,SE,131,0.0,0.0,70,0.00,,,0.00,WeatherDisplay:10.37,2014-01-30 07:15:00,
2014-01-30 02:20:00,9.1,1.3,30.32,SE,131,0.0,0.0,70,0.00,,,0.00,WeatherDisplay:10.37,2014-01-30 07:20:00,
2014-01-30 02:25:00,8.7,1.2,30.32,SE,131,0.0,0.0,71,0.00,,,0.00,WeatherDisplay:10.37,2014-01-30 07:25:00,
2014-01-30 02:30:00,8.5,1.0,30.32,SE,131,0.0,0.0,71,0.00,,,0.00,WeatherDisplay:10.37,2014-01-30 07:30:00,
2014-01-30 02:35:00,8.3,0.8,30.32,SE,131,0.0,0.0,71,0.00,,,0.00,WeatherDisplay:10.37,2014-01-30 07:35:00,
2014-01-30 02:40:00,7.9,0.7,30.31,SE,131,0.0,0.0,72,0.00,,,0.00,WeatherDisplay:10.37,2014-01-30 07:40:00,
2014-01-30 02:45:00,7.6,0.5,30.31,SE,131,0.0,0.0,72,0.00,,,0.00,WeatherDisplay:10.37,2014-01-30 07:45:00,
2014-01-30 02:50:00,7.4,0.3,30.32,SE,131,0.0,0.0,72,0.00,,,0.00,WeatherDisplay:10.37,2014-01-30 07:50:00,
2014-01-30 02:55:00,7.2,0.1,30.32,SE,131,0.0,0.0,72,0.00,,,0.00,WeatherDisplay:10.37,2014-01-30 07:55:00,
2014-01-30 03:00:00,7.1,0.3,30.31,SE,131,0.0,0.0,73,0.00,,,0.00,WeatherDisplay:10.37,2014-01-30 08:00:00,
2014-01-30 03:05:00,7.2,0.4,30.32,SE,131,0.0,0.0,73,0.00,,,0.00,WeatherDisplay:10.37,2014-01-30 08:05:00,
2014-01-30 03:10:00,7.1,0.3,30.31,SE,131,0.0,0.0,73,0.00,,,0.00,WeatherDisplay:10.37,2014-01-30 08:10:00,
2014-01-30 03:15:00,7.0,0.2,30.32,SE,131,0.0,0.0,73,0.00,,,0.00,WeatherDisplay:10.37,2014-01-30 08:15:00,
2014-01-30 03:20:00,6.8,0.0,30.31,SE,131,0.0,0.0,73,0.00,,,0.00,WeatherDisplay:10.37,2014-01-30 08:20:00,
2014-01-30 03:25:00,6.7,-0.1,30.31,SE,131,0.0,0.0,73,0.00,,,0.00,WeatherDisplay:10.37,2014-01-30 08:25:00,
2014-01-30 03:30:00,6.7,-0.1,30.31,SE,131,0.0,0.0,73,0.00,,,0.00,WeatherDisplay:10.37,2014-01-30 08:30:00,
2014-01-30 03:35:00,6.9,0.4,30.31,SE,131,0.0,0.0,74,0.00,,,0.00,WeatherDisplay:10.37,2014-01-30 08:35:00,
2014-01-30 03:40:00,6.8,0.0,30.31,SE,131,0.0,0.0,73,0.00,,,0.00,WeatherDisplay:10.37,2014-01-30 08:40:00,
2014-01-30 03:45:00,6.7,-0.1,30.31,SE,131,0.0,0.0,73,0.00,,,0.00,WeatherDisplay:10.37,2014-01-30 08:45:00,
2014-01-30 03:50:00,6.7,0.2,30.31,SE,131,0.0,0.0,74,0.00,,,0.00,WeatherDisplay:10.37,2014-01-30 08:50:00,
2014-01-30 03:55:00,6.5,-0.3,30.31,SE,131,0.0,0.0,73,0.00,,,0.00,WeatherDisplay:10.37,2014-01-30 08:55:00,
2014-01-30 04:00:00,6.5,0.0,30.31,SE,131,1.1,0.0,74,0.00,,,0.00,WeatherDisplay:10.37,2014-01-30 09:00:00,
2014-01-30 04:05:00,6.4,-0.1,30.30,SE,131,0.0,0.0,74,0.00,,,0.00,WeatherDisplay:10.37,2014-01-30 09:05:00,
2014-01-30 04:10:00,6.1,-0.4,30.30,SE,131,0.0,0.0,74,0.00,,,0.00,WeatherDisplay:10.37,2014-01-30 09:10:00,
2014-01-30 04:15:00,5.9,-0.6,30.30,SE,131,0.0,0.0,74,0.00,,,0.00,WeatherDisplay:10.37,2014-01-30 09:15:00,
2014-01-30 04:20:00,5.7,-0.5,30.30,SE,131,0.0,0.0,75,0.00,,,0.00,WeatherDisplay:10.37,2014-01-30 09:20:00,
2014-01-30 04:25:00,5.7,-0.2,30.31,SE,131,0.0,0.0,76,0.00,,,0.00,WeatherDisplay:10.37,2014-01-30 09:25:00,
2014-01-30 04:30:00,5.9,0.0,30.30,SE,131,0.0,0.0,76,0.00,,,0.00,WeatherDisplay:10.37,2014-01-30 09:30:00,
2014-01-30 04:35:00,6.1,0.2,30.31,South,174,0.0,0.0,76,0.00,,,0.00,WeatherDisplay:10.37,2014-01-30 09:35:00,
2014-01-30 04:40:00,6.2,0.3,30.30,SSE,156,0.0,0.0,76,0.00,,,0.00,WeatherDisplay:10.37,2014-01-30 09:40:00,
2014-01-30 04:45:00,6.2,0.0,30.31,SSE,156,0.0,0.0,75,0.00,,,0.00,WeatherDisplay:10.37,2014-01-30 09:45:00,
2014-01-30 04:50:00,6.1,-0.1,30.31,SSE,158,1.1,1.1,75,0.00,,,0.00,WeatherDisplay:10.37,2014-01-30 09:50:00,
2014-01-30 04:55:00,6.1,-0.1,30.31,SSE,161,1.1,0.0,75,0.00,,,0.00,WeatherDisplay:10.37,2014-01-30 09:55:00,
2014-01-30 05:00:00,6.2,0.0,30.31,SE,145,1.1,1.1,75,0.00,,,0.00,WeatherDisplay:10.37,2014-01-30 10:00:00,
2014-01-30 05:05:00,6.2,-0.3,30.31,SSE,152,0.0,0.2,74,0.00,,,0.00,WeatherDisplay:10.37,2014-01-30 10:05:00,
2014-01-30 05:10:00,6.3,-0.2,30.31,SSE,159,0.0,0.4,74,0.00,,,0.00,WeatherDisplay:10.37,2014-01-30 10:10:00,
2014-01-30 05:15:00,6.2,-0.3,30.31,SSE,149,0.0,0.1,74,0.00,,,0.00,WeatherDisplay:10.37,2014-01-30 10:15:00,
2014-01-30 05:20:00,6.3,-0.2,30.31,South,174,0.0,0.0,74,0.00,,,0.00,WeatherDisplay:10.37,2014-01-30 10:20:00,
2014-01-30 05:25:00,6.4,-0.1,30.32,SSE,160,0.0,0.0,74,0.00,,,0.00,WeatherDisplay:10.37,2014-01-30 10:25:00,
2014-01-30 05:30:00,6.4,-0.1,30.31,SSE,153,0.0,0.0,74,0.00,,,0.00,WeatherDisplay:10.37,2014-01-30 10:30:00,
2014-01-30 05:36:00,6.6,-0.2,30.31,ESE,122,1.0,1.0,73,0.00,,,0.00,WeatherDisplay:10.37,2014-01-30 10:36:00,
2014-01-30 05:41:00,6.7,-0.1,30.31,SSE,148,0.0,0.0,73,0.00,,,0.00,WeatherDisplay:10.37,2014-01-30 10:41:00,
2014-01-30 05:46:00,6.7,-0.4,30.31,SSE,155,0.0,0.0,72,0.00,,,0.00,WeatherDisplay:10.37,2014-01-30 10:46:00,
2014-01-30 05:51:00,6.6,-0.5,30.32,SSE,155,0.0,0.0,72,0.00,,,0.00,WeatherDisplay:10.37,2014-01-30 10:51:00,
2014-01-30 05:56:00,6.6,-0.5,30.32,SE,139,0.0,0.0,72,0.00,,,0.00,WeatherDisplay:10.37,2014-01-30 10:56:00,
2014-01-30 06:01:00,6.6,-0.5,30.32,SSE,159,0.0,0.0,72,0.00,,,0.00,WeatherDisplay:10.37,2014-01-30 11:01:00,
2014-01-30 06:06:00,6.6,-0.5,30.32,SE,143,1.0,0.0,72,0.00,,,0.00,WeatherDisplay:10.37,2014-01-30 11:06:00,
2014-01-30 06:11:00,6.7,-0.4,30.32,SSE,150,0.0,0.1,72,0.00,,,0.00,WeatherDisplay:10.37,2014-01-30 11:11:00,
2014-01-30 06:16:00,6.8,-0.3,30.32,SE,143,1.1,0.0,72,0.00,,,0.00,WeatherDisplay:10.37,2014-01-30 11:16:00,
2014-01-30 06:21:00,6.9,-0.2,30.32,SE,145,0.0,0.0,72,0.00,,,0.00,WeatherDisplay:10.37,2014-01-30 11:21:00,
2014-01-30 06:26:00,7.0,-0.1,30.33,SSE,153,1.1,0.0,72,0.00,,,0.00,WeatherDisplay:10.37,2014-01-30 11:26:00,
2014-01-30 06:31:00,7.0,-0.4,30.33,SSE,158,1.1,1.1,71,0.00,,,0.00,WeatherDisplay:10.37,2014-01-30 11:31:00,
2014-01-30 06:36:00,6.9,-0.2,30.32,SSE,150,1.1,1.1,72,0.00,,,0.00,WeatherDisplay:10.37,2014-01-30 11:36:00,
2014-01-30 06:41:00,6.9,-0.5,30.33,SSE,159,0.0,0.0,71,0.00,,,0.00,WeatherDisplay:10.37,2014-01-30 11:41:00,
2014-01-30 06:46:00,6.8,-0.3,30.33,SSE,150,0.0,0.0,72,0.00,,,0.00,WeatherDisplay:10.37,2014-01-30 11:46:00,
2014-01-30 06:51:00,6.7,-0.4,30.33,SSE,158,0.0,0.0,72,0.00,,,0.00,WeatherDisplay:10.37,2014-01-30 11:51:00,
2014-01-30 06:56:00,6.7,-0.4,30.33,SSE,150,0.0,0.0,72,0.00,,,0.00,WeatherDisplay:10.37,2014-01-30 11:56:00,
2014-01-30 07:01:00,6.6,-0.5,30.33,SSE,159,0.0,0.0,72,0.00,CLR,,0.00,WeatherDisplay:10.37,2014-01-30 12:01:00,
2014-01-30 07:06:00,6.7,-0.4,30.33,SSE,164,1.0,1.0,72,0.00,CLR,,0.00,WeatherDisplay:10.37,2014-01-30 12:06:00,
2014-01-30 07:11:00,6.8,-0.3,30.34,SSE,159,1.1,1.1,72,0.00,CLR,,0.00,WeatherDisplay:10.37,2014-01-30 12:11:00,
2014-01-30 07:16:00,7.0,-0.1,30.34,SSE,165,1.1,1.1,72,0.00,CLR,,0.00,WeatherDisplay:10.37,2014-01-30 12:16:00,
2014-01-30 07:21:00,7.2,-0.2,30.34,SSE,153,0.0,0.0,71,0.00,CLR,,0.00,WeatherDisplay:10.37,2014-01-30 12:21:00,
2014-01-30 07:26:00,7.3,-0.1,30.34,SSE,155,0.0,0.0,71,0.00,CLR,,0.00,WeatherDisplay:10.37,2014-01-30 12:26:00,
2014-01-30 07:31:00,7.3,-0.1,30.34,SSE,159,0.0,0.0,71,0.00,CLR,,0.00,WeatherDisplay:10.37,2014-01-30 12:31:00,
2014-01-30 07:36:00,7.3,-0.1,30.34,South,176,0.0,0.2,71,0.00,CLR,,0.00,WeatherDisplay:10.37,2014-01-30 12:36:00,
2014-01-30 07:41:00,7.4,-0.3,30.34,SSE,152,1.1,1.1,70,0.00,CLR,,0.00,WeatherDisplay:10.37,2014-01-30 12:41:00,
2014-01-30 07:46:00,7.6,-0.1,30.35,SSE,157,3.5,3.5,70,0.00,CLR,,0.00,WeatherDisplay:10.37,2014-01-30 12:46:00,
2014-01-30 07:51:00,7.6,-0.1,30.35,SE,145,1.1,1.1,70,0.00,CLR,,0.00,WeatherDisplay:10.37,2014-01-30 12:51:00,
2014-01-30 07:56:00,7.9,0.1,30.35,SSE,150,2.3,2.3,70,0.00,CLR,,0.00,WeatherDisplay:10.37,2014-01-30 12:56:00,
2014-01-30 08:01:00,8.2,0.4,30.35,SSE,163,1.1,1.1,70,0.00,CLR,,0.00,WeatherDisplay:10.37,2014-01-30 13:01:00,
2014-01-30 08:06:00,8.4,0.6,30.36,SSE,149,1.1,1.1,70,0.00,CLR,,0.00,WeatherDisplay:10.37,2014-01-30 13:06:00,
2014-01-30 08:11:00,8.7,0.9,30.36,SE,141,1.1,1.1,70,0.00,CLR,,0.00,WeatherDisplay:10.37,2014-01-30 13:11:00,
2014-01-30 08:16:00,8.9,1.1,30.36,SSE,165,2.3,2.3,70,0.00,CLR,,0.00,WeatherDisplay:10.37,2014-01-30 13:16:00,
2014-01-30 08:21:00,9.3,1.5,30.35,SSE,158,2.3,2.3,70,0.00,CLR,,0.00,WeatherDisplay:10.37,2014-01-30 13:21:00,
2014-01-30 08:26:00,9.7,1.6,30.36,SSE,150,2.3,2.3,69,0.00,CLR,,0.00,WeatherDisplay:10.37,2014-01-30 13:26:00,
2014-01-30 08:31:00,10.0,1.9,30.36,SSE,163,2.3,2.3,69,0.00,CLR,,0.00,WeatherDisplay:10.37,2014-01-30 13:31:00,
2014-01-30 08:36:00,10.3,2.1,30.36,SE,136,1.1,1.1,69,0.00,CLR,,0.00,WeatherDisplay:10.37,2014-01-30 13:36:00,
2014-01-30 08:41:00,10.6,2.1,30.36,SSE,160,3.5,3.5,68,0.00,CLR,,0.00,WeatherDisplay:10.37,2014-01-30 13:41:00,
2014-01-30 08:46:00,11.0,2.5,30.36,East,95,2.0,2.0,68,0.00,CLR,,0.00,WeatherDisplay:10.37,2014-01-30 13:46:00,
2014-01-30 08:51:00,11.3,2.8,30.36,SE,137,1.1,1.1,68,0.00,CLR,,0.00,WeatherDisplay:10.37,2014-01-30 13:51:00,
2014-01-30 08:56:00,11.6,2.8,30.35,SW,218,2.3,2.3,67,0.00,CLR,,0.00,WeatherDisplay:10.37,2014-01-30 13:56:00,
2014-01-30 09:01:00,12.0,3.1,30.35,ESE,107,3.5,3.5,67,0.00,CLR,,0.00,WeatherDisplay:10.37,2014-01-30 14:01:00,
2014-01-30 09:06:00,12.4,3.2,30.36,SW,214,1.1,1.1,66,0.00,CLR,,0.00,WeatherDisplay:10.37,2014-01-30 14:06:00,
2014-01-30 09:11:00,12.8,3.6,30.36,SSW,203,1.1,1.1,66,0.00,CLR,,0.00,WeatherDisplay:10.37,2014-01-30 14:11:00,
2014-01-30 09:16:00,13.3,3.7,30.36,ESE,108,3.5,3.5,65,0.00,CLR,,0.00,WeatherDisplay:10.37,2014-01-30 14:16:00,
2014-01-30 09:21:00,13.6,3.7,30.36,SSW,198,1.1,1.1,64,0.00,CLR,,0.00,WeatherDisplay:10.37,2014-01-30 14:21:00,
2014-01-30 09:26:00,14.0,4.1,30.36,SSE,163,0.0,0.0,64,0.00,CLR,,0.00,WeatherDisplay:10.37,2014-01-30 14:26:00,
2014-01-30 09:31:00,14.2,4.2,30.36,SE,143,4.6,4.6,64,0.00,CLR,,0.00,WeatherDisplay:10.37,2014-01-30 14:31:00,
2014-01-30 09:36:00,14.5,4.9,30.36,SSW,194,0.0,0.0,65,0.00,CLR,,0.00,WeatherDisplay:10.37,2014-01-30 14:36:00,
2014-01-30 09:41:00,15.1,4.8,30.35,SW,228,4.6,4.6,63,0.00,CLR,,0.00,WeatherDisplay:10.37,2014-01-30 14:41:00,
2014-01-30 09:46:00,15.5,5.1,30.35,SE,146,2.3,2.3,63,0.00,CLR,,0.00,WeatherDisplay:10.37,2014-01-30 14:46:00,
2014-01-30 09:51:00,16.0,5.3,30.35,ESE,120,3.0,3.0,62,0.00,CLR,,0.00,WeatherDisplay:10.37,2014-01-30 14:51:00,
2014-01-30 09:56:00,16.5,5.4,30.35,SSE,148,6.9,6.9,61,0.00,CLR,,0.00,WeatherDisplay:10.37,2014-01-30 14:56:00,
2014-01-30 10:01:00,16.8,5.3,30.35,SW,226,4.6,4.6,60,0.00,CLR,,0.00,WeatherDisplay:10.37,2014-01-30 15:01:00,
2014-01-30 10:06:00,17.2,5.7,30.35,SSE,148,3.5,3.5,60,0.00,CLR,,0.00,WeatherDisplay:10.37,2014-01-30 15:06:00,
2014-01-30 10:11:00,17.6,6.1,30.35,SSW,201,3.5,3.5,60,0.00,CLR,,0.00,WeatherDisplay:10.37,2014-01-30 15:11:00,
2014-01-30 10:16:00,18.0,6.1,30.35,SSW,198,3.5,3.5,59,0.00,CLR,,0.00,WeatherDisplay:10.37,2014-01-30 15:16:00,
2014-01-30 10:21:00,18.4,6.4,30.35,SSE,159,4.0,4.0,59,0.00,CLR,,0.00,WeatherDisplay:10.37,2014-01-30 15:21:00,
2014-01-30 10:26:00,18.7,6.7,30.35,WSW,238,4.0,4.0,59,0.00,CLR,,0.00,WeatherDisplay:10.37,2014-01-30 15:26:00,
2014-01-30 10:31:00,19.0,6.6,30.35,SSE,148,1.1,1.1,58,0.00,CLR,,0.00,WeatherDisplay:10.37,2014-01-30 15:31:00,
2014-01-30 10:36:00,19.4,7.0,30.35,South,172,1.1,1.1,58,0.00,CLR,,0.00,WeatherDisplay:10.37,2014-01-30 15:36:00,
2014-01-30 10:41:00,19.7,6.5,30.35,ESE,113,3.5,3.5,56,0.00,CLR,,0.00,WeatherDisplay:10.37,2014-01-30 15:41:00,
2014-01-30 10:46:00,19.9,7.1,30.35,South,170,4.0,4.0,57,0.00,CLR,,0.00,WeatherDisplay:10.37,2014-01-30 15:46:00,
2014-01-30 10:51:00,20.2,7.4,30.35,South,181,3.5,3.5,57,0.00,CLR,,0.00,WeatherDisplay:10.37,2014-01-30 15:51:00,
2014-01-30 10:56:00,20.3,7.1,30.35,SSE,155,3.5,3.5,56,0.00,CLR,,0.00,WeatherDisplay:10.37,2014-01-30 15:56:00,
2014-01-30 11:01:00,20.7,7.1,30.34,SSE,166,1.1,1.1,55,0.00,CLR,,0.00,WeatherDisplay:10.37,2014-01-30 16:01:00,
2014-01-30 11:06:00,20.9,6.8,30.34,SSE,162,3.5,3.5,54,0.00,CLR,,0.00,WeatherDisplay:10.37,2014-01-30 16:06:00,
2014-01-30 11:11:00,21.1,7.0,30.34,SE,131,3.5,3.5,54,0.00,CLR,,0.00,WeatherDisplay:10.37,2014-01-30 16:11:00,
2014-01-30 11:16:00,21.2,7.5,30.33,ESE,107,3.5,3.5,55,0.00,CLR,,0.00,WeatherDisplay:10.37,2014-01-30 16:16:00,
2014-01-30 11:21:00,21.5,7.4,30.33,South,179,3.5,3.5,54,0.00,CLR,,0.00,WeatherDisplay:10.37,2014-01-30 16:21:00,
2014-01-30 11:26:00,21.7,7.6,30.33,SSW,197,3.5,3.5,54,0.00,CLR,,0.00,WeatherDisplay:10.37,2014-01-30 16:26:00,
2014-01-30 11:31:00,21.8,8.1,30.32,SSE,148,2.3,2.3,55,0.00,CLR,,0.00,WeatherDisplay:10.37,2014-01-30 16:31:00,
2014-01-30 11:36:00,22.4,8.2,30.32,SW,229,3.5,3.5,54,0.00,CLR,,0.00,WeatherDisplay:10.37,2014-01-30 16:36:00,
2014-01-30 11:41:00,22.7,8.5,30.31,SE,146,2.3,2.3,54,0.00,CLR,,0.00,WeatherDisplay:10.37,2014-01-30 16:41:00,
2014-01-30 11:46:00,22.9,8.3,30.30,South,186,2.3,2.3,53,0.00,CLR,,0.00,WeatherDisplay:10.37,2014-01-30 16:46:00,
2014-01-30 11:51:00,23.3,7.8,30.30,WNW,297,3.5,3.5,51,0.00,CLR,,0.00,WeatherDisplay:10.37,2014-01-30 16:51:00,
2014-01-30 11:56:00,23.6,8.5,30.30,South,169,2.3,2.3,52,0.00,CLR,,0.00,WeatherDisplay:10.37,2014-01-30 16:56:00,
2014-01-30 12:01:00,23.5,8.4,30.29,SSW,211,2.3,2.3,52,0.00,CLR,,0.00,WeatherDisplay:10.37,2014-01-30 17:01:00,
2014-01-30 12:06:00,23.7,8.6,30.29,East,98,3.5,3.5,52,0.00,CLR,,0.00,WeatherDisplay:10.37,2014-01-30 17:06:00,
2014-01-30 12:11:00,24.0,8.9,30.28,East,91,2.3,2.3,52,0.00,CLR,,0.00,WeatherDisplay:10.37,2014-01-30 17:11:00,
2014-01-30 12:16:00,24.2,8.7,30.28,SE,141,3.0,3.0,51,0.00,CLR,,0.00,WeatherDisplay:10.37,2014-01-30 17:16:00,
2014-01-30 12:21:00,24.3,8.7,30.27,SSE,166,3.5,3.5,51,0.00,CLR,,0.00,WeatherDisplay:10.37,2014-01-30 17:21:00,
2014-01-30 12:26:00,24.4,8.4,30.27,WSW,249,3.5,3.5,50,0.00,CLR,,0.00,WeatherDisplay:10.37,2014-01-30 17:26:00,
2014-01-30 12:31:00,24.3,9.2,30.27,SSE,167,2.3,2.3,52,0.00,CLR,,0.00,WeatherDisplay:10.37,2014-01-30 17:31:00,
2014-01-30 12:36:00,24.4,8.4,30.26,SSW,197,3.5,3.5,50,0.00,CLR,,0.00,WeatherDisplay:10.37,2014-01-30 17:36:00,
2014-01-30 12:41:00,24.6,8.6,30.25,SSW,208,3.5,3.5,50,0.00,CLR,,0.00,WeatherDisplay:10.37,2014-01-30 17:41:00,
2014-01-30 12:46:00,24.7,7.3,30.25,SSW,205,9.2,9.2,47,0.00,CLR,,0.00,WeatherDisplay:10.37,2014-01-30 17:46:00,
2014-01-30 12:51:00,24.6,7.2,30.25,SSE,156,5.0,5.0,47,0.00,CLR,,0.00,WeatherDisplay:10.37,2014-01-30 17:51:00,
2014-01-30 12:56:00,24.3,6.9,30.25,East,89,5.0,5.0,47,0.00,CLR,,0.00,WeatherDisplay:10.37,2014-01-30 17:56:00,
2014-01-30 13:01:00,24.2,6.8,30.24,South,180,9.2,9.2,47,0.00,CLR,,0.00,WeatherDisplay:10.37,2014-01-30 18:01:00,
2014-01-30 13:06:00,24.4,7.5,30.24,South,188,2.3,2.3,48,0.00,CLR,,0.00,WeatherDisplay:10.37,2014-01-30 18:06:00,
2014-01-30 13:11:00,24.6,8.1,30.24,SSW,201,3.5,3.5,49,0.00,CLR,,0.00,WeatherDisplay:10.37,2014-01-30 18:11:00,
2014-01-30 13:16:00,24.7,7.8,30.23,SSW,195,5.0,5.0,48,0.00,CLR,,0.00,WeatherDisplay:10.37,2014-01-30 18:16:00,
2014-01-30 13:21:00,24.8,8.3,30.23,South,181,4.6,4.6,49,0.00,CLR,,0.00,WeatherDisplay:10.37,2014-01-30 18:21:00,
2014-01-30 13:26:00,25.3,8.8,30.22,South,172,3.5,3.5,49,0.00,CLR,,0.00,WeatherDisplay:10.37,2014-01-30 18:26:00,
2014-01-30 13:31:00,25.3,9.7,30.21,East,91,5.0,5.0,51,0.00,CLR,,0.00,WeatherDisplay:10.37,2014-01-30 18:31:00,
2014-01-30 13:36:00,25.2,9.6,30.21,SW,233,5.8,5.8,51,0.00,CLR,,0.00,WeatherDisplay:10.37,2014-01-30 18:36:00,
2014-01-30 13:41:00,25.4,9.8,30.20,SSE,153,3.5,3.5,51,0.00,CLR,,0.00,WeatherDisplay:10.37,2014-01-30 18:41:00,
2014-01-30 13:46:00,25.5,9.9,30.20,East,101,4.6,4.6,51,0.00,CLR,,0.00,WeatherDisplay:10.37,2014-01-30 18:46:00,
2014-01-30 13:51:00,25.8,8.8,30.20,SE,142,5.8,5.8,48,0.00,CLR,,0.00,WeatherDisplay:10.37,2014-01-30 18:51:00,
2014-01-30 13:56:00,25.7,9.2,30.20,East,96,3.5,3.5,49,0.00,CLR,,0.00,WeatherDisplay:10.37,2014-01-30 18:56:00,
2014-01-30 14:01:00,25.7,9.6,30.19,South,172,3.5,3.6,50,0.00,CLR,,0.00,WeatherDisplay:10.37,2014-01-30 19:01:00,
2014-01-30 14:06:00,26.0,9.9,30.19,SSW,200,4.6,4.6,50,0.00,CLR,,0.00,WeatherDisplay:10.37,2014-01-30 19:06:00,
2014-01-30 14:11:00,26.0,9.9,30.18,SE,137,3.5,3.5,50,0.00,CLR,,0.00,WeatherDisplay:10.37,2014-01-30 19:11:00,
2014-01-30 14:16:00,26.0,9.9,30.18,SE,134,3.5,3.5,50,0.00,CLR,,0.00,WeatherDisplay:10.37,2014-01-30 19:16:00,
2014-01-30 14:21:00,25.9,9.3,30.18,ESE,105,4.6,4.6,49,0.00,CLR,,0.00,WeatherDisplay:10.37,2014-01-30 19:21:00,
2014-01-30 14:26:00,26.0,9.4,30.17,ESE,105,5.8,5.8,49,0.00,CLR,,0.00,WeatherDisplay:10.37,2014-01-30 19:26:00,
2014-01-30 14:31:00,26.1,9.5,30.17,SW,215,2.3,2.3,49,0.00,CLR,,0.00,WeatherDisplay:10.37,2014-01-30 19:31:00,
2014-01-30 14:36:00,26.4,9.3,30.17,SSW,203,3.5,3.5,48,0.00,CLR,,0.00,WeatherDisplay:10.37,2014-01-30 19:36:00,
2014-01-30 14:41:00,26.6,9.5,30.16,ESE,121,6.9,6.9,48,0.00,CLR,,0.00,WeatherDisplay:10.37,2014-01-30 19:41:00,
2014-01-30 14:46:00,26.8,9.2,30.16,SE,132,5.8,5.8,47,0.00,CLR,,0.00,WeatherDisplay:10.37,2014-01-30 19:46:00,
2014-01-30 14:51:00,26.8,9.2,30.16,SW,214,3.5,3.5,47,0.00,CLR,,0.00,WeatherDisplay:10.37,2014-01-30 19:51:00,
2014-01-30 14:56:00,26.7,9.6,30.16,SW,236,5.8,5.8,48,0.00,CLR,,0.00,WeatherDisplay:10.37,2014-01-30 19:56:00,
2014-01-30 15:01:00,26.7,9.6,30.17,SSE,157,3.5,3.5,48,0.00,CLR,,0.00,WeatherDisplay:10.37,2014-01-30 20:01:00,
2014-01-30 15:06:00,27.1,9.5,30.17,SW,214,3.5,3.5,47,0.00,CLR,,0.00,WeatherDisplay:10.37,2014-01-30 20:06:00,
2014-01-30 15:11:00,27.4,9.8,30.16,SW,217,3.0,3.0,47,0.00,CLR,,0.00,WeatherDisplay:10.37,2014-01-30 20:11:00,
2014-01-30 15:17:00,27.4,10.3,30.16,East,100,4.6,4.6,48,0.00,CLR,,0.00,WeatherDisplay:10.37,2014-01-30 20:17:00,
2014-01-30 15:22:00,27.7,10.1,30.15,South,190,3.5,3.5,47,0.00,CLR,,0.00,WeatherDisplay:10.37,2014-01-30 20:22:00,
2014-01-30 15:27:00,27.8,10.2,30.15,ESE,108,5.0,5.0,47,0.00,CLR,,0.00,WeatherDisplay:10.37,2014-01-30 20:27:00,
2014-01-30 15:32:00,27.7,10.1,30.15,South,173,2.3,2.3,47,0.00,CLR,,0.00,WeatherDisplay:10.37,2014-01-30 20:32:00,
2014-01-30 15:37:00,27.6,10.0,30.15,ESE,105,3.5,3.5,47,0.00,CLR,,0.00,WeatherDisplay:10.37,2014-01-30 20:37:00,
2014-01-30 15:42:00,27.7,9.6,30.15,SSW,193,3.5,3.5,46,0.00,CLR,,0.00,WeatherDisplay:10.37,2014-01-30 20:42:00,
2014-01-30 15:47:00,27.7,9.6,30.14,SW,218,3.5,3.5,46,0.00,CLR,,0.00,WeatherDisplay:10.37,2014-01-30 20:47:00,
2014-01-30 15:52:00,27.7,9.6,30.14,SSE,163,3.5,3.5,46,0.00,CLR,,0.00,WeatherDisplay:10.37,2014-01-30 20:52:00,
2014-01-30 15:57:00,27.7,10.1,30.14,SSE,161,3.5,3.5,47,0.00,CLR,,0.00,WeatherDisplay:10.37,2014-01-30 20:57:00,
2014-01-30 16:02:00,27.7,9.6,30.14,SW,226,3.5,3.5,46,0.00,CLR,,0.00,WeatherDisplay:10.37,2014-01-30 21:02:00,
2014-01-30 16:07:00,27.5,9.9,30.14,SSE,153,2.3,2.3,47,0.00,CLR,,0.00,WeatherDisplay:10.37,2014-01-30 21:07:00,
2014-01-30 16:12:00,27.4,8.3,30.13,SSE,149,2.3,2.3,44,0.00,CLR,,0.00,WeatherDisplay:10.37,2014-01-30 21:12:00,
2014-01-30 16:17:00,27.4,8.8,30.12,SE,132,3.5,3.5,45,0.00,CLR,,0.00,WeatherDisplay:10.37,2014-01-30 21:17:00,
2014-01-30 16:22:00,27.4,9.3,30.12,SSE,162,3.5,3.5,46,0.00,CLR,,0.00,WeatherDisplay:10.37,2014-01-30 21:22:00,
2014-01-30 16:27:00,27.4,8.3,30.12,South,179,9.2,9.2,44,0.00,CLR,,0.00,WeatherDisplay:10.37,2014-01-30 21:27:00,
2014-01-30 16:32:00,27.5,8.4,30.12,SE,141,8.0,8.0,44,0.00,CLR,,0.00,WeatherDisplay:10.37,2014-01-30 21:32:00,
2014-01-30 16:37:00,27.5,8.9,30.12,SSE,167,3.5,3.5,45,0.00,CLR,,0.00,WeatherDisplay:10.37,2014-01-30 21:37:00,
2014-01-30 16:42:00,27.4,8.8,30.12,SSE,166,3.5,3.5,45,0.00,CLR,,0.00,WeatherDisplay:10.37,2014-01-30 21:42:00,
2014-01-30 16:47:00,27.4,8.3,30.11,SE,141,3.5,3.5,44,0.00,CLR,,0.00,WeatherDisplay:10.37,2014-01-30 21:47:00,
2014-01-30 16:52:00,27.3,9.2,30.11,SSE,152,2.0,2.0,46,0.00,CLR,,0.00,WeatherDisplay:10.37,2014-01-30 21:52:00,
2014-01-30 16:57:00,27.2,9.1,30.11,SE,131,3.5,3.5,46,0.00,CLR,,0.00,WeatherDisplay:10.37,2014-01-30 21:57:00,
2014-01-30 17:02:00,27.1,10.0,30.11,SE,138,3.5,3.5,48,0.00,CLR,,0.00,WeatherDisplay:10.37,2014-01-30 22:02:00,
2014-01-30 17:07:00,26.9,9.3,30.10,SE,132,2.3,2.3,47,0.00,CLR,,0.00,WeatherDisplay:10.37,2014-01-30 22:07:00,
2014-01-30 17:12:00,26.9,9.3,30.10,South,174,1.1,1.1,47,0.00,CLR,,0.00,WeatherDisplay:10.37,2014-01-30 22:12:00,
2014-01-30 17:17:00,26.9,9.3,30.10,South,187,1.1,1.1,47,0.00,CLR,,0.00,WeatherDisplay:10.37,2014-01-30 22:17:00,
2014-01-30 17:22:00,26.8,9.7,30.10,South,183,1.1,1.1,48,0.00,CLR,,0.00,WeatherDisplay:10.37,2014-01-30 22:22:00,
2014-01-30 17:27:00,26.7,9.1,30.09,SE,126,3.5,3.5,47,0.00,CLR,,0.00,WeatherDisplay:10.37,2014-01-30 22:27:00,
2014-01-30 17:32:00,26.7,9.1,30.09,SSE,159,4.6,4.6,47,0.00,CLR,,0.00,WeatherDisplay:10.37,2014-01-30 22:32:00,
2014-01-30 17:37:00,26.8,9.7,30.08,SSE,167,3.5,3.5,48,0.00,CLR,,0.00,WeatherDisplay:10.37,2014-01-30 22:37:00,
2014-01-30 17:42:00,26.8,8.8,30.08,SE,145,4.0,4.0,46,0.00,CLR,,0.00,WeatherDisplay:10.37,2014-01-30 22:42:00,
2014-01-30 17:47:00,26.9,8.8,30.08,SSW,203,2.3,2.3,46,0.00,CLR,,0.00,WeatherDisplay:10.37,2014-01-30 22:47:00,
2014-01-30 17:52:00,27.0,8.9,30.08,ESE,108,3.5,3.5,46,0.00,,,0.00,WeatherDisplay:10.37,2014-01-30 22:52:00,
2014-01-30 17:57:00,26.9,9.3,30.07,SE,132,3.5,3.5,47,0.00,,,0.00,WeatherDisplay:10.37,2014-01-30 22:57:00,
2014-01-30 18:02:00,26.9,8.8,30.07,SSE,160,3.5,3.5,46,0.00,,,0.00,WeatherDisplay:10.37,2014-01-30 23:02:00,
2014-01-30 18:07:00,26.8,9.7,30.07,SW,214,2.3,2.3,48,0.00,,,0.00,WeatherDisplay:10.37,2014-01-30 23:07:00,
2014-01-30 18:12:00,26.8,9.2,30.07,ESE,107,3.5,3.5,47,0.00,,,0.00,WeatherDisplay:10.37,2014-01-30 23:12:00,
2014-01-30 18:13:00,26.8,8.8,30.07,SE,126,4.6,4.6,46,0.00,,,0.00,WeatherDisplay:10.37,2014-01-30 23:13:00,
2014-01-30 18:18:00,27.0,8.5,30.07,ESE,122,2.3,2.3,45,0.00,,,0.00,WeatherDisplay:10.37,2014-01-30 23:18:00,
2014-01-30 18:23:00,27.0,8.9,30.07,South,169,3.5,3.5,46,0.00,,,0.00,WeatherDisplay:10.37,2014-01-30 23:23:00,
2014-01-30 18:28:00,27.0,8.5,30.06,ESE,111,5.0,5.0,45,0.00,,,0.00,WeatherDisplay:10.37,2014-01-30 23:28:00,
2014-01-30 18:33:00,27.0,9.4,30.06,SSW,198,2.3,2.3,47,0.00,,,0.00,WeatherDisplay:10.37,2014-01-30 23:33:00,
2014-01-30 18:38:00,27.0,8.5,30.06,SE,124,6.9,6.9,45,0.00,,,0.00,WeatherDisplay:10.37,2014-01-30 23:38:00,
2014-01-30 18:43:00,27.0,8.9,30.05,SSE,152,4.6,4.6,46,0.00,,,0.00,WeatherDisplay:10.37,2014-01-30 23:43:00,
2014-01-30 18:48:00,27.1,8.5,30.05,SE,127,5.8,5.8,45,0.00,,,0.00,WeatherDisplay:10.37,2014-01-30 23:48:00,
2014-01-30 18:53:00,27.2,8.1,30.04,South,186,2.3,2.3,44,0.00,,,0.00,WeatherDisplay:10.37,2014-01-30 23:53:00,
2014-01-30 18:58:00,27.2,8.1,30.04,ESE,117,5.8,5.8,44,0.00,,,0.00,WeatherDisplay:10.37,2014-01-30 23:58:00,
2014-01-30 19:03:00,27.1,9.5,30.04,South,191,2.3,2.3,47,0.00,,,0.00,WeatherDisplay:10.37,2014-01-31 00:03:00,
2014-01-30 19:08:00,27.1,9.0,30.03,ESE,118,3.5,3.5,46,0.00,,,0.00,WeatherDisplay:10.37,2014-01-31 00:08:00,
2014-01-30 19:13:00,27.1,9.5,30.03,SSW,211,4.6,4.6,47,0.00,,,0.00,WeatherDisplay:10.37,2014-01-31 00:13:00,
2014-01-30 19:18:00,27.1,10.4,30.03,South,177,2.0,2.0,49,0.00,,,0.00,WeatherDisplay:10.37,2014-01-31 00:18:00,
2014-01-30 19:23:00,27.0,10.4,30.02,SSE,166,3.5,3.5,49,0.00,,,0.00,WeatherDisplay:10.37,2014-01-31 00:23:00,
2014-01-30 19:28:00,26.9,10.7,30.02,SE,145,2.3,2.3,50,0.00,,,0.00,WeatherDisplay:10.37,2014-01-31 00:28:00,
2014-01-30 19:33:00,26.9,10.3,30.02,SSE,159,3.5,3.5,49,0.00,,,0.00,WeatherDisplay:10.37,2014-01-31 00:33:00,
2014-01-30 19:34:00,26.9,10.3,30.02,SSW,194,2.3,2.3,49,0.00,,,0.00,WeatherDisplay:10.37,2014-01-31 00:34:00,
2014-01-30 19:39:00,26.9,10.7,30.01,SSE,163,6.0,6.0,50,0.00,,,0.00,WeatherDisplay:10.37,2014-01-31 00:39:00,
2014-01-30 19:45:00,27.0,9.9,30.00,SSE,158,9.2,9.2,48,0.00,,,0.00,WeatherDisplay:10.37,2014-01-31 00:45:00,
2014-01-30 19:50:00,26.9,10.7,30.00,South,173,4.6,4.6,50,0.00,,,0.00,WeatherDisplay:10.37,2014-01-31 00:50:00,
2014-01-30 19:55:00,26.9,10.7,30.00,South,170,4.6,4.6,50,0.00,,,0.00,WeatherDisplay:10.37,2014-01-31 00:55:00,
2014-01-30 20:00:00,26.9,10.7,29.99,SSW,195,5.8,5.8,50,0.00,,,0.00,WeatherDisplay:10.37,2014-01-31 01:00:00,
2014-01-30 20:05:00,26.9,11.2,29.99,South,169,4.6,4.6,51,0.00,,,0.00,WeatherDisplay:10.37,2014-01-31 01:05:00,
2014-01-30 20:10:00,26.8,11.1,29.98,SE,137,4.6,4.6,51,0.00,,,0.00,WeatherDisplay:10.37,2014-01-31 01:10:00,
2014-01-30 20:15:00,26.8,11.1,29.98,SSW,207,4.6,4.6,51,0.00,,,0.00,WeatherDisplay:10.37,2014-01-31 01:15:00,